createdAt,value
2017-08-13T00:00:31.273Z,98.00
2017-08-13T00:02:58.797Z,98.20
2017-08-13T00:05:26.296Z,98.60
2017-08-13T00:07:53.830Z,99.50
2017-08-13T00:10:21.333Z,99.20
2017-08-13T00:12:48.861Z,98.50
2017-08-13T00:15:16.378Z,98.90
2017-08-13T00:17:43.896Z,99.20
2017-08-13T00:20:11.399Z,99.70
2017-08-13T00:22:38.930Z,98.80
2017-08-13T00:25:06.436Z,98.60
2017-08-13T00:27:33.941Z,99.50
2017-08-13T00:30:01.471Z,99.20
2017-08-13T00:32:28.996Z,99.90
2017-08-13T00:34:56.536Z,99.90
2017-08-13T00:37:24.048Z,99.80
2017-08-13T00:39:51.598Z,99.60
2017-08-13T00:42:19.123Z,99.60
2017-08-13T00:44:46.644Z,99.60
2017-08-13T00:47:14.167Z,99.90
2017-08-13T00:49:41.701Z,98.60
2017-08-13T00:52:09.212Z,99.50
2017-08-13T00:54:36.738Z,99.00
2017-08-13T00:57:04.261Z,98.80
2017-08-13T00:59:31.791Z,99.10
2017-08-13T01:01:59.321Z,99.60
2017-08-13T01:04:26.854Z,99.70
2017-08-13T01:06:54.369Z,99.40
2017-08-13T01:09:21.872Z,99.60
2017-08-13T01:11:49.399Z,99.60
2017-08-13T01:14:16.896Z,99.70
2017-08-13T01:16:44.431Z,99.30
2017-08-13T01:19:11.944Z,99.60
2017-08-13T01:21:39.474Z,99.40
2017-08-13T01:24:07.001Z,99.80
2017-08-13T01:26:34.536Z,99.90
2017-08-13T01:29:02.062Z,99.90
2017-08-13T01:31:29.596Z,99.90
2017-08-13T01:33:57.910Z,99.90
2017-08-13T01:36:25.446Z,99.90
2017-08-13T01:38:52.956Z,99.90
2017-08-13T01:41:20.498Z,99.90
2017-08-13T01:43:47.998Z,99.90
2017-08-13T01:46:15.538Z,99.90
2017-08-13T01:48:43.041Z,99.90
2017-08-13T01:51:10.569Z,99.90
2017-08-13T01:53:38.085Z,99.90
2017-08-13T01:56:06.523Z,99.90
2017-08-13T01:58:34.051Z,99.90
2017-08-13T02:01:01.556Z,99.90
2017-08-13T02:03:29.082Z,99.90
2017-08-13T02:05:56.833Z,99.90
2017-08-13T02:08:24.357Z,99.90
2017-08-13T02:10:51.854Z,99.90
2017-08-13T02:13:19.377Z,99.90
2017-08-13T02:15:46.884Z,99.40
2017-08-13T02:18:14.417Z,98.50
2017-08-13T02:20:41.923Z,98.90
2017-08-13T02:23:09.446Z,99.50
2017-08-13T02:25:36.965Z,99.30
2017-08-13T02:28:04.501Z,99.10
2017-08-13T02:30:32.472Z,99.60
2017-08-13T02:32:59.999Z,99.40
2017-08-13T02:35:27.516Z,99.30
2017-08-13T02:37:55.054Z,99.30
2017-08-13T02:40:22.561Z,98.70
2017-08-13T02:42:50.093Z,98.60
2017-08-13T02:45:17.622Z,98.50
2017-08-13T02:47:45.112Z,98.80
2017-08-13T02:50:13.421Z,99.10
2017-08-13T02:52:40.942Z,99.50
2017-08-13T02:55:08.482Z,99.60
2017-08-13T02:57:36.047Z,99.40
2017-08-13T03:00:03.624Z,98.40
2017-08-13T03:02:31.188Z,99.00
2017-08-13T03:04:58.708Z,99.30
2017-08-13T03:07:26.226Z,99.40
2017-08-13T03:09:53.753Z,98.70
2017-08-13T03:12:21.257Z,99.20
2017-08-13T03:14:48.787Z,99.50
2017-08-13T03:17:16.288Z,99.70
2017-08-13T03:19:43.820Z,99.80
2017-08-13T03:22:11.325Z,99.70
2017-08-13T03:24:38.828Z,99.70
2017-08-13T03:27:06.354Z,98.80
2017-08-13T03:29:33.856Z,99.20
2017-08-13T03:32:01.378Z,98.00
2017-08-13T03:34:28.886Z,98.90
2017-08-13T03:36:56.404Z,99.10
2017-08-13T03:39:23.932Z,97.60
2017-08-13T03:41:51.681Z,98.60
2017-08-13T03:44:19.258Z,98.80
2017-08-13T03:46:46.853Z,98.90
2017-08-13T03:49:14.360Z,99.40
2017-08-13T03:51:41.905Z,99.80
2017-08-13T03:54:09.424Z,98.80
2017-08-13T03:56:36.973Z,99.20
2017-08-13T03:59:04.494Z,99.00
2017-08-13T04:01:32.024Z,99.40
2017-08-13T04:03:59.544Z,98.90
2017-08-13T04:06:27.081Z,99.40
2017-08-13T04:08:54.600Z,99.20
2017-08-13T04:11:22.118Z,99.20
2017-08-13T04:13:49.644Z,99.00
2017-08-13T04:16:17.173Z,98.90
2017-08-13T04:18:44.727Z,99.40
2017-08-13T04:21:12.236Z,99.30
2017-08-13T04:23:39.776Z,99.20
2017-08-13T04:26:07.326Z,98.80
2017-08-13T04:28:34.860Z,99.30
2017-08-13T04:31:02.352Z,99.20
2017-08-13T04:33:29.881Z,99.10
2017-08-13T04:35:57.384Z,98.90
2017-08-13T04:38:24.908Z,99.00
2017-08-13T04:40:52.431Z,98.90
2017-08-13T04:43:19.979Z,98.60
2017-08-13T04:45:47.491Z,98.70
2017-08-13T04:48:15.028Z,98.20
2017-08-13T04:50:42.524Z,98.20
2017-08-13T04:53:10.108Z,98.30
2017-08-13T04:55:37.616Z,97.90
2017-08-13T04:58:05.177Z,97.20
2017-08-13T05:00:32.746Z,97.90
2017-08-13T05:03:00.256Z,98.00
2017-08-13T05:05:27.783Z,97.20
2017-08-13T05:07:55.295Z,97.80
2017-08-13T05:10:22.837Z,97.90
2017-08-13T05:12:50.348Z,97.90
2017-08-13T05:15:17.872Z,98.20
2017-08-13T05:17:45.381Z,98.40
2017-08-13T05:20:12.914Z,98.50
2017-08-13T05:22:40.421Z,98.40
2017-08-13T05:25:07.959Z,97.90
2017-08-13T05:27:35.473Z,98.10
2017-08-13T05:30:02.993Z,97.70
2017-08-13T05:32:30.504Z,97.70
2017-08-13T05:34:58.028Z,96.60
2017-08-13T05:37:25.535Z,96.90
2017-08-13T05:39:53.166Z,95.50
2017-08-13T05:42:20.705Z,96.30
2017-08-13T05:44:48.230Z,95.10
2017-08-13T05:47:15.759Z,95.90
2017-08-13T05:49:43.322Z,94.50
2017-08-13T05:52:10.853Z,94.90
2017-08-13T05:54:38.388Z,95.00
2017-08-13T05:57:05.919Z,95.30
2017-08-13T05:59:33.521Z,94.90
2017-08-13T06:02:01.056Z,94.70
2017-08-13T06:04:28.727Z,94.20
2017-08-13T06:06:56.264Z,94.50
2017-08-13T06:09:23.770Z,93.70
2017-08-13T06:11:51.393Z,93.80
2017-08-13T06:14:18.883Z,93.90
2017-08-13T06:16:46.420Z,94.50
2017-08-13T06:19:13.957Z,94.00
2017-08-13T06:21:42.541Z,93.90
2017-08-13T06:24:10.139Z,93.10
2017-08-13T06:26:50.048Z,92.70
2017-08-13T06:29:17.566Z,92.40
2017-08-13T06:31:45.128Z,92.30
2017-08-13T06:34:12.628Z,92.30
2017-08-13T06:36:40.193Z,92.10
2017-08-13T06:39:07.738Z,92.10
2017-08-13T06:41:35.274Z,91.90
2017-08-13T06:44:02.831Z,91.80
2017-08-13T06:46:30.373Z,91.80
2017-08-13T06:48:57.958Z,91.10
2017-08-13T06:51:26.037Z,91.00
2017-08-13T06:53:53.601Z,91.00
2017-08-13T06:56:21.818Z,90.50
2017-08-13T06:58:49.362Z,90.60
2017-08-13T07:01:19.082Z,90.50
2017-08-13T07:03:46.633Z,90.90
2017-08-13T07:06:14.180Z,90.80
2017-08-13T07:08:41.800Z,91.10
2017-08-13T07:11:09.379Z,90.80
2017-08-13T07:13:37.005Z,90.80
2017-08-13T07:16:04.619Z,90.70
2017-08-13T07:18:32.838Z,90.50
2017-08-13T07:21:01.042Z,88.30
2017-08-13T07:23:29.771Z,87.50
2017-08-13T07:25:58.421Z,88.40
2017-08-13T07:28:25.989Z,87.50
2017-08-13T07:30:53.607Z,87.10
2017-08-13T07:33:21.221Z,87.20
2017-08-13T07:35:48.890Z,88.10
2017-08-13T07:38:16.477Z,87.50
2017-08-13T07:40:45.649Z,88.80
2017-08-13T07:43:13.225Z,86.90
2017-08-13T07:45:40.891Z,84.30
2017-08-13T07:48:14.722Z,84.40
2017-08-13T07:50:42.272Z,83.70
2017-08-13T07:53:12.639Z,83.10
2017-08-13T07:55:56.857Z,83.60
2017-08-13T07:58:24.394Z,84.40
2017-08-13T08:00:51.948Z,86.10
2017-08-13T08:03:20.306Z,85.70
2017-08-13T08:05:47.895Z,84.40
2017-08-13T08:08:16.368Z,83.90
2017-08-13T08:10:49.632Z,86.40
2017-08-13T08:13:20.874Z,84.60
2017-08-13T08:15:53.802Z,85.10
2017-08-13T08:18:33.299Z,83.80
2017-08-13T08:21:03.631Z,85.50
2017-08-13T08:23:31.347Z,82.90
2017-08-13T08:26:03.083Z,83.50
2017-08-13T08:28:31.798Z,82.70
2017-08-13T08:31:00.546Z,83.20
2017-08-13T08:33:29.382Z,81.60
2017-08-13T08:35:58.001Z,80.90
2017-08-13T08:38:25.712Z,79.00
2017-08-13T08:43:30.026Z,80.80
2017-08-13T08:46:00.718Z,81.10
2017-08-13T08:48:28.300Z,80.60
2017-08-13T08:50:58.346Z,80.70
2017-08-13T08:56:08.288Z,81.00
2017-08-13T09:01:35.320Z,79.40
2017-08-13T09:04:02.867Z,77.70
2017-08-13T09:06:32.731Z,78.30
2017-08-13T09:09:00.256Z,79.20
2017-08-13T09:11:43.658Z,78.80
2017-08-13T09:17:03.920Z,78.00
2017-08-13T09:19:31.437Z,78.60
2017-08-13T09:21:58.995Z,80.30
2017-08-13T09:24:26.867Z,79.80
2017-08-13T09:26:55.341Z,78.90
2017-08-13T09:29:23.094Z,80.00
2017-08-13T09:31:50.622Z,79.60
2017-08-13T09:34:18.189Z,80.20
2017-08-13T09:36:45.733Z,79.30
2017-08-13T09:39:13.257Z,80.10
2017-08-13T09:41:40.833Z,78.50
2017-08-13T09:44:08.366Z,77.80
2017-08-13T09:46:35.878Z,78.10
2017-08-13T09:49:03.445Z,78.90
2017-08-13T09:51:35.755Z,77.70
2017-08-13T09:54:03.322Z,79.20
2017-08-13T09:56:30.845Z,78.20
2017-08-13T09:58:58.473Z,79.20
2017-08-13T10:01:25.994Z,79.10
2017-08-13T10:03:53.533Z,79.10
2017-08-13T10:06:21.065Z,78.70
2017-08-13T10:08:48.622Z,77.90
2017-08-13T10:11:16.156Z,78.40
2017-08-13T10:13:43.696Z,76.40
2017-08-13T10:16:11.330Z,77.10
2017-08-13T10:18:38.973Z,76.20
2017-08-13T10:21:06.498Z,75.90
2017-08-13T10:23:36.466Z,76.90
2017-08-13T10:26:04.149Z,75.60
2017-08-13T10:28:31.693Z,75.60
2017-08-13T10:30:59.241Z,77.00
2017-08-13T10:36:20.969Z,74.50
2017-08-13T10:38:48.555Z,74.40
2017-08-13T10:41:16.138Z,75.30
2017-08-13T10:43:43.686Z,73.90
2017-08-13T10:46:11.319Z,74.80
2017-08-13T10:48:38.859Z,73.70
2017-08-13T10:51:06.481Z,71.80
2017-08-13T10:53:34.643Z,72.70
2017-08-13T10:56:02.229Z,72.70
2017-08-13T10:58:29.783Z,75.10
2017-08-13T11:00:57.316Z,75.30
2017-08-13T11:03:24.838Z,76.10
2017-08-13T11:05:52.411Z,78.50
2017-08-13T11:08:19.960Z,78.60
2017-08-13T11:10:47.494Z,78.00
2017-08-13T11:13:14.994Z,79.60
2017-08-13T11:15:42.529Z,81.70
2017-08-13T11:18:10.033Z,79.60
2017-08-13T11:20:37.548Z,80.20
2017-08-13T11:23:06.040Z,78.70
2017-08-13T11:25:33.552Z,78.40
2017-08-13T11:28:01.084Z,76.90
2017-08-13T11:30:28.584Z,76.40
2017-08-13T11:32:56.224Z,73.80
2017-08-13T11:35:23.830Z,74.90
2017-08-13T11:37:51.778Z,75.60
2017-08-13T11:40:19.391Z,77.60
2017-08-13T11:42:46.925Z,77.10
2017-08-13T11:45:14.460Z,76.50
2017-08-13T11:47:41.993Z,75.90
2017-08-13T11:50:09.551Z,76.90
2017-08-13T11:52:37.105Z,77.70
2017-08-13T11:55:04.649Z,77.10
2017-08-13T11:57:32.206Z,76.50
2017-08-13T11:59:59.731Z,77.50
2017-08-13T12:02:27.280Z,75.30
2017-08-13T12:04:54.793Z,74.40
2017-08-13T12:07:22.332Z,75.10
2017-08-13T12:09:49.854Z,77.60
2017-08-13T12:12:17.408Z,76.30
2017-08-13T12:14:44.912Z,75.20
2017-08-13T12:17:12.764Z,74.50
2017-08-13T12:19:40.285Z,76.10
2017-08-13T12:22:07.786Z,75.60
2017-08-13T12:24:35.305Z,76.60
2017-08-13T12:27:03.043Z,77.90
2017-08-13T12:29:30.585Z,78.20
2017-08-13T12:31:58.117Z,79.70
2017-08-13T12:34:25.640Z,80.80
2017-08-13T12:36:53.161Z,78.40
2017-08-13T12:39:20.690Z,80.00
2017-08-13T12:41:48.222Z,79.30
2017-08-13T12:44:15.958Z,78.10
2017-08-13T12:46:43.552Z,77.50
2017-08-13T12:49:11.104Z,77.10
2017-08-13T12:51:38.647Z,77.70
2017-08-13T12:54:06.372Z,76.50
2017-08-13T12:56:33.935Z,78.50
2017-08-13T12:59:01.453Z,79.90
2017-08-13T13:01:28.973Z,80.30
2017-08-13T13:03:56.605Z,81.30
2017-08-13T13:06:24.147Z,81.60
2017-08-13T13:08:51.661Z,79.20
2017-08-13T13:11:19.217Z,78.80
2017-08-13T13:13:46.740Z,77.70
2017-08-13T13:16:14.256Z,76.50
2017-08-13T13:18:41.780Z,76.40
2017-08-13T13:21:09.304Z,75.50
2017-08-13T13:23:36.849Z,73.70
2017-08-13T13:26:04.358Z,74.70
2017-08-13T13:28:31.874Z,78.20
2017-08-13T13:30:59.400Z,79.70
2017-08-13T13:33:26.912Z,80.00
2017-08-13T13:35:54.473Z,81.70
2017-08-13T13:38:22.000Z,82.60
2017-08-13T13:40:49.506Z,81.90
2017-08-13T13:43:17.086Z,82.10
2017-08-13T13:45:44.733Z,81.00
2017-08-13T13:48:12.273Z,82.30
2017-08-13T13:50:39.793Z,83.30
2017-08-13T13:53:07.335Z,82.90
2017-08-13T13:55:34.884Z,80.30
2017-08-13T13:58:02.510Z,81.80
2017-08-13T14:00:30.686Z,81.30
2017-08-13T14:02:58.418Z,80.70
2017-08-13T14:05:25.978Z,82.40
2017-08-13T14:07:53.530Z,80.80
2017-08-13T14:10:21.044Z,81.70
2017-08-13T14:12:48.638Z,82.30
2017-08-13T14:15:16.218Z,82.30
2017-08-13T14:17:43.773Z,82.00
2017-08-13T14:20:11.329Z,81.60
2017-08-13T14:22:38.994Z,81.60
2017-08-13T14:25:07.260Z,81.20
2017-08-13T14:27:34.928Z,81.80
2017-08-13T14:30:02.840Z,82.70
2017-08-13T14:32:30.401Z,82.90
2017-08-13T14:34:57.992Z,82.80
2017-08-13T14:37:25.565Z,83.10
2017-08-13T14:39:53.108Z,82.80
2017-08-13T14:42:20.678Z,84.00
2017-08-13T14:44:48.238Z,83.50
2017-08-13T14:47:15.786Z,84.60
2017-08-13T14:49:43.655Z,83.70
2017-08-13T14:52:11.192Z,85.30
2017-08-13T14:54:38.810Z,84.80
2017-08-13T14:57:06.386Z,84.90
2017-08-13T14:59:33.941Z,86.30
2017-08-13T15:02:01.535Z,85.20
2017-08-13T15:04:29.307Z,84.80
2017-08-13T15:06:56.921Z,84.80
2017-08-13T15:09:24.506Z,84.30
2017-08-13T15:11:52.095Z,82.20
2017-08-13T15:14:20.242Z,83.50
2017-08-13T15:16:47.821Z,83.80
2017-08-13T15:19:15.379Z,84.40
2017-08-13T15:21:42.927Z,83.60
2017-08-13T15:24:10.473Z,84.80
2017-08-13T15:26:38.024Z,84.50
2017-08-13T15:29:05.580Z,83.70
2017-08-13T15:31:33.130Z,84.30
2017-08-13T15:34:00.752Z,84.30
2017-08-13T15:36:28.371Z,84.10
2017-08-13T15:38:55.921Z,84.90
2017-08-13T15:41:23.569Z,83.60
2017-08-13T15:43:51.869Z,84.00
2017-08-13T15:46:19.575Z,84.00
2017-08-13T15:48:47.236Z,83.70
2017-08-13T15:51:17.894Z,84.50
2017-08-13T15:53:45.545Z,84.40
2017-08-13T15:56:13.224Z,84.90
2017-08-13T15:58:41.012Z,85.60
2017-08-13T16:01:09.141Z,84.70
2017-08-13T16:06:18.274Z,85.30
2017-08-13T16:08:51.626Z,85.10
2017-08-13T16:11:20.549Z,85.30
2017-08-13T16:13:48.177Z,84.70
2017-08-13T16:16:15.725Z,84.20
2017-08-13T16:18:43.266Z,83.10
2017-08-13T16:21:10.790Z,84.00
2017-08-13T16:23:38.345Z,82.90
2017-08-13T16:26:05.844Z,82.50
2017-08-13T16:28:33.357Z,83.00
2017-08-13T16:31:00.921Z,82.40
2017-08-13T16:33:28.419Z,82.50
2017-08-13T16:35:56.002Z,83.40
2017-08-13T16:38:23.521Z,84.10
2017-08-13T16:40:51.034Z,84.60
2017-08-13T16:43:18.553Z,85.40
2017-08-13T16:45:46.103Z,85.80
2017-08-13T16:48:13.597Z,85.70
2017-08-13T16:50:41.125Z,85.50
2017-08-13T16:53:08.638Z,85.00
2017-08-13T16:55:36.136Z,85.10
2017-08-13T16:58:03.647Z,84.60
2017-08-13T17:00:31.139Z,85.10
2017-08-13T17:02:58.658Z,85.70
2017-08-13T17:05:26.158Z,84.30
2017-08-13T17:07:53.664Z,84.10
2017-08-13T17:10:21.201Z,83.90
2017-08-13T17:12:48.705Z,84.40
2017-08-13T17:15:16.235Z,85.30
2017-08-13T17:17:43.730Z,86.30
2017-08-13T17:20:11.224Z,87.20
2017-08-13T17:22:38.738Z,87.10
2017-08-13T17:25:06.240Z,87.00
2017-08-13T17:27:33.779Z,87.10
2017-08-13T17:30:01.286Z,87.60
2017-08-13T17:32:28.804Z,87.00
2017-08-13T17:34:56.334Z,88.10
2017-08-13T17:37:23.845Z,87.60
2017-08-13T17:39:51.370Z,87.30
2017-08-13T17:42:18.899Z,87.70
2017-08-13T17:44:46.532Z,88.20
2017-08-13T17:47:14.044Z,88.50
2017-08-13T17:49:41.781Z,89.30
2017-08-13T17:52:09.277Z,90.00
2017-08-13T17:54:36.919Z,90.20
2017-08-13T17:57:04.453Z,90.50
2017-08-13T17:59:31.945Z,90.80
2017-08-13T18:01:59.949Z,90.90
2017-08-13T18:04:27.440Z,90.90
2017-08-13T18:06:56.136Z,91.00
2017-08-13T18:09:23.712Z,91.20
2017-08-13T18:11:51.212Z,91.50
2017-08-13T18:14:18.769Z,91.50
2017-08-13T18:16:46.256Z,91.60
2017-08-13T18:19:13.757Z,91.90
2017-08-13T18:21:42.438Z,92.20
2017-08-13T18:24:09.958Z,92.70
2017-08-13T18:26:38.144Z,92.70
2017-08-13T18:29:06.822Z,93.20
2017-08-13T18:31:34.340Z,93.80
2017-08-13T18:34:01.875Z,94.20
2017-08-13T18:36:29.389Z,94.30
2017-08-13T18:38:56.897Z,94.90
2017-08-13T18:41:24.434Z,95.20
2017-08-13T18:43:51.953Z,95.60
2017-08-13T18:46:25.655Z,95.70
2017-08-13T18:48:54.587Z,95.80
2017-08-13T18:51:22.116Z,96.60
2017-08-13T18:53:50.322Z,96.90
2017-08-13T18:56:17.884Z,97.10
2017-08-13T18:58:45.421Z,97.00
2017-08-13T19:01:14.649Z,97.00
2017-08-13T19:03:46.082Z,97.10
2017-08-13T19:06:13.603Z,97.10
2017-08-13T19:08:41.114Z,97.20
2017-08-13T19:11:09.294Z,97.10
2017-08-13T19:13:36.797Z,97.40
2017-08-13T19:16:05.252Z,97.50
2017-08-13T19:18:32.765Z,97.50
2017-08-13T19:21:01.483Z,97.20
2017-08-13T19:23:29.005Z,97.60
2017-08-13T19:25:57.496Z,97.90
2017-08-13T19:28:25.170Z,98.10
2017-08-13T19:30:54.524Z,98.30
2017-08-13T19:33:22.029Z,98.40
2017-08-13T19:35:49.717Z,98.60
2017-08-13T19:38:17.239Z,98.70
2017-08-13T19:40:44.781Z,98.90
2017-08-13T19:43:12.861Z,98.80
2017-08-13T19:45:40.363Z,98.90
2017-08-13T19:48:07.923Z,98.60
2017-08-13T19:50:35.443Z,98.80
2017-08-13T19:53:06.323Z,98.80
2017-08-13T19:55:33.854Z,98.70
2017-08-13T19:58:02.850Z,98.70
2017-08-13T20:00:30.382Z,98.90
2017-08-13T20:02:57.977Z,98.80
2017-08-13T20:05:27.509Z,98.90
2017-08-13T20:07:55.029Z,98.80
2017-08-13T20:10:22.542Z,99.30
2017-08-13T20:12:50.070Z,99.20
2017-08-13T20:15:18.686Z,98.80
2017-08-13T20:17:46.180Z,99.00
2017-08-13T20:20:13.745Z,98.90
2017-08-13T20:22:42.784Z,98.60
2017-08-13T20:25:11.258Z,98.70
2017-08-13T20:27:38.782Z,98.70
2017-08-13T20:30:07.920Z,99.00
2017-08-13T20:32:35.435Z,98.50
2017-08-13T20:35:05.350Z,98.90
2017-08-13T20:37:35.690Z,98.30
2017-08-13T20:40:03.505Z,98.10
2017-08-13T20:42:31.057Z,98.00
2017-08-13T20:44:58.899Z,98.10
2017-08-13T20:47:26.410Z,98.40
2017-08-13T20:49:53.939Z,98.10
2017-08-13T20:52:21.765Z,98.10
2017-08-13T20:54:49.270Z,98.60
2017-08-13T20:57:16.796Z,98.70
2017-08-13T20:59:44.564Z,98.70
2017-08-13T21:02:12.380Z,98.60
2017-08-13T21:04:40.149Z,98.60
2017-08-13T21:07:07.956Z,98.50
2017-08-13T21:09:35.489Z,98.50
2017-08-13T21:12:02.996Z,98.90
2017-08-13T21:14:30.520Z,99.20
2017-08-13T21:16:58.028Z,99.30
2017-08-13T21:19:25.532Z,99.40
2017-08-13T21:21:53.093Z,99.70
2017-08-13T21:24:20.621Z,99.40
2017-08-13T21:26:48.121Z,99.70
2017-08-13T21:29:15.626Z,99.90
2017-08-13T21:31:43.141Z,99.90
2017-08-13T21:34:11.441Z,99.90
2017-08-13T21:36:38.948Z,99.90
2017-08-13T21:39:06.477Z,99.90
2017-08-13T21:41:33.989Z,99.90
2017-08-13T21:44:01.522Z,99.90
2017-08-13T21:46:29.069Z,99.90
2017-08-13T21:48:56.578Z,99.90
2017-08-13T21:51:24.121Z,99.90
2017-08-13T21:53:51.634Z,99.90
2017-08-13T21:56:21.122Z,99.90
2017-08-13T21:58:48.649Z,99.90
2017-08-13T22:01:16.153Z,99.90
2017-08-13T22:03:43.678Z,99.90
2017-08-13T22:06:11.206Z,99.90
2017-08-13T22:08:38.708Z,99.90
2017-08-13T22:11:06.234Z,99.90
2017-08-13T22:13:33.748Z,99.90
2017-08-13T22:16:01.260Z,99.90
2017-08-13T22:18:28.769Z,99.90
2017-08-13T22:20:56.270Z,99.90
2017-08-13T22:23:23.770Z,99.90
2017-08-13T22:25:52.198Z,99.90
2017-08-13T22:28:20.649Z,99.90
2017-08-13T22:30:48.152Z,99.70
2017-08-13T22:33:15.673Z,99.80
2017-08-13T22:35:43.168Z,99.10
2017-08-13T22:38:10.664Z,99.70
2017-08-13T22:40:38.181Z,99.70
2017-08-13T22:43:05.681Z,99.40
2017-08-13T22:45:33.181Z,99.90
2017-08-13T22:48:00.709Z,99.90
2017-08-13T22:50:28.212Z,99.90
2017-08-13T22:52:55.796Z,99.90
2017-08-13T22:55:23.329Z,99.90
2017-08-13T22:57:50.825Z,99.90
2017-08-13T23:00:18.334Z,99.90
2017-08-13T23:02:45.857Z,99.90
2017-08-13T23:05:13.362Z,99.90
2017-08-13T23:07:40.885Z,99.90
2017-08-13T23:10:08.389Z,99.90
2017-08-13T23:12:35.920Z,99.90
2017-08-13T23:15:03.425Z,99.90
2017-08-13T23:17:30.948Z,99.90
2017-08-13T23:19:58.444Z,99.90
2017-08-13T23:22:25.969Z,99.90
2017-08-13T23:24:53.486Z,99.90
2017-08-13T23:27:20.999Z,99.90
2017-08-13T23:29:48.497Z,99.90
2017-08-13T23:32:16.015Z,99.90
2017-08-13T23:34:43.513Z,99.90
2017-08-13T23:37:11.028Z,99.90
2017-08-13T23:39:39.648Z,99.90
2017-08-13T23:42:07.160Z,99.90
2017-08-13T23:44:34.653Z,99.90
2017-08-13T23:47:02.165Z,99.90
2017-08-13T23:49:29.697Z,99.90
2017-08-13T23:51:57.193Z,99.90
2017-08-13T23:54:24.716Z,99.90
2017-08-13T23:56:52.212Z,99.90
2017-08-13T23:59:19.732Z,99.90
